Time;durP1;ratioP1;P1;durP2;ratioP2;P2;SDS_P1;SDS_P2;PMS_P1;PMS_P2;Temp;Humidity;BMP_temperature;BMP_pressure;BME280_temperature;BME280_humidity;BME280_pressure;Samples;Min_cycle;Max_cycle;Signal;HPM_P1;HPM_P2
2022/05/02 00:01:20;;;;;;;12.32;3.97;;;;;;;17.86;68.38;100835.50;2078460;28;20084;-73
2022/05/02 00:02:43;;;;;;;12.70;4.15;;;;;;;17.87;68.36;100832.84;2089780;28;20419;-73
2022/05/02 00:04:06;;;;;;;12.70;4.15;;;;;;;17.86;68.45;100825.72;2101449;28;20048;-74
2022/05/02 00:05:28;;;;;;;12.57;3.75;;;;;;;17.86;68.43;100812.38;2093723;28;20131;-73
2022/05/02 00:06:51;;;;;;;11.35;3.30;;;;;;;17.86;68.49;100803.47;2097975;28;20067;-73
2022/05/02 00:08:15;;;;;;;12.15;3.75;;;;;;;17.85;68.67;100799.06;2102067;28;20091;-73
2022/05/02 00:09:36;;;;;;;12.63;3.97;;;;;;;17.85;68.66;100807.06;2095133;28;20040;-73
2022/05/02 00:10:59;;;;;;;12.27;3.92;;;;;;;17.90;68.63;100805.22;2100923;28;20059;-74
2022/05/02 00:12:20;;;;;;;9.73;3.30;;;;;;;17.95;68.55;100805.13;2096459;28;20552;-74
2022/05/02 00:13:42;;;;;;;12.18;3.88;;;;;;;17.97;68.49;100795.31;2099814;28;20052;-73
2022/05/02 00:15:04;;;;;;;12.73;4.05;;;;;;;17.98;68.45;100792.66;2101979;28;20048;-73
2022/05/02 00:16:27;;;;;;;11.48;3.38;;;;;;;18.01;68.42;100787.25;2096298;28;20047;-73
2022/05/02 00:17:57;;;;;;;9.38;3.22;;;;;;;18.03;68.28;100790.78;2095106;28;20131;-73
2022/05/02 00:19:20;;;;;;;10.05;3.17;;;;;;;18.03;68.30;100785.44;2102305;28;20046;-73
2022/05/02 00:20:42;;;;;;;11.05;3.70;;;;;;;18.01;68.40;100781.91;2095679;28;20056;-74
2022/05/02 00:22:04;;;;;;;8.43;3.08;;;;;;;17.97;68.46;100777.50;2094978;28;20052;-73
2022/05/02 00:23:29;;;;;;;10.38;3.92;;;;;;;17.95;68.70;100781.97;2095132;28;20110;-74
2022/05/02 00:24:50;;;;;;;10.13;4.10;;;;;;;17.91;68.73;100781.16;2094693;28;20056;-73
2022/05/02 00:26:13;;;;;;;9.10;4.13;;;;;;;17.92;68.73;100782.91;2101251;28;20149;-73
2022/05/02 00:27:35;;;;;;;10.95;3.53;;;;;;;17.92;68.73;100772.22;2101909;28;20531;-73
2022/05/02 00:28:58;;;;;;;10.00;3.47;;;;;;;17.90;68.82;100762.47;2103139;28;20105;-74
2022/05/02 00:30:22;;;;;;;7.30;3.03;;;;;;;17.89;68.90;100752.69;2097702;28;20051;-74
2022/05/02 00:31:45;;;;;;;6.97;2.92;;;;;;;17.85;69.00;100753.66;2110483;28;20052;-74
2022/05/02 00:33:08;;;;;;;10.57;3.90;;;;;;;17.80;69.17;100747.47;2105710;28;20047;-73
2022/05/02 00:34:29;;;;;;;7.72;3.55;;;;;;;17.77;69.24;100750.19;2094950;28;20114;-74
2022/05/02 00:35:52;;;;;;;11.43;3.75;;;;;;;17.78;69.29;100746.63;2098415;28;20048;-74
2022/05/02 00:37:14;;;;;;;6.25;2.80;;;;;;;17.79;69.35;100749.25;2093706;28;20045;-73
2022/05/02 00:38:38;;;;;;;12.00;3.42;;;;;;;17.79;69.34;100759.94;2102762;28;20175;-74
2022/05/02 00:40:00;;;;;;;10.30;3.78;;;;;;;17.76;69.46;100783.16;2099981;28;20164;-73
2022/05/02 00:41:23;;;;;;;9.93;3.17;;;;;;;17.73;69.51;100794.75;2102517;28;20052;-73
2022/05/02 00:42:48;;;;;;;7.78;3.95;;;;;;;17.76;69.63;100816.06;2102429;28;20477;-74
2022/05/02 00:44:10;;;;;;;10.50;3.55;;;;;;;17.81;69.57;100830.25;2103632;28;20051;-74
2022/05/02 00:45:37;;;;;;;8.85;3.08;;;;;;;17.89;69.45;100840.84;2100421;28;20040;-73
2022/05/02 00:46:59;;;;;;;12.10;3.60;;;;;;;17.92;69.28;100854.13;2090819;28;20048;-74
2022/05/02 00:48:21;;;;;;;11.13;3.80;;;;;;;17.95;69.17;100850.56;2099363;28;20567;-74
2022/05/02 00:49:43;;;;;;;9.77;3.35;;;;;;;17.98;69.04;100875.47;2102395;28;20056;-73
2022/05/02 00:51:05;;;;;;;9.75;3.28;;;;;;;17.98;68.97;100891.47;2098764;28;20066;-74
2022/05/02 00:52:28;;;;;;;12.52;4.70;;;;;;;17.97;68.97;100902.19;2100789;28;20520;-74
2022/05/02 00:53:53;;;;;;;9.88;3.47;;;;;;;17.97;69.11;100907.53;2091373;28;20040;-73
2022/05/02 00:55:15;;;;;;;11.55;3.33;;;;;;;17.94;69.30;100887.06;2098836;28;20059;-73
2022/05/02 00:56:36;;;;;;;12.77;4.43;;;;;;;17.90;69.30;100861.31;2100237;28;20036;-76
2022/05/02 00:58:00;;;;;;;12.02;4.95;;;;;;;17.88;69.39;100831.06;2098598;28;20105;-73
2022/05/02 00:59:25;;;;;;;10.88;4.15;;;;;;;17.82;69.48;100807.09;2103288;28;20051;-72
2022/05/02 01:00:47;;;;;;;10.43;4.05;;;;;;;17.73;69.73;100801.88;2102540;28;20055;-73
2022/05/02 01:02:12;;;;;;;12.65;4.70;;;;;;;17.63;70.14;100782.44;2105566;28;20043;-73
2022/05/02 01:03:36;;;;;;;13.15;4.90;;;;;;;17.54;70.59;100754.03;2102562;28;20112;-73
2022/05/02 01:04:58;;;;;;;16.75;5.32;;;;;;;17.43;71.08;100745.28;2101230;28;20489;-72
2022/05/02 01:08:00;;;;;;;14.65;4.30;;;;;;;17.32;72.23;100720.53;2100353;28;20040;-73
2022/05/02 01:09:23;;;;;;;11.88;4.72;;;;;;;17.33;72.36;100714.25;2098250;28;20825;-72
2022/05/02 01:10:46;;;;;;;17.98;5.60;;;;;;;17.36;72.43;100703.56;2094335;28;20036;-73
2022/05/02 01:12:09;;;;;;;11.30;4.18;;;;;;;17.39;72.47;100706.16;2099047;28;20054;-73
2022/05/02 01:13:33;;;;;;;13.40;3.83;;;;;;;17.42;72.58;100710.59;2099652;28;21132;-73
2022/05/02 01:14:57;;;;;;;14.75;3.88;;;;;;;17.41;72.73;100714.16;2102227;28;20044;-73
2022/05/02 01:16:21;;;;;;;12.65;4.13;;;;;;;17.37;72.98;100713.34;2103283;28;20806;-73
2022/05/02 01:17:44;;;;;;;14.50;4.45;;;;;;;17.28;73.20;100694.75;2102272;28;20060;-73
2022/05/02 01:19:05;;;;;;;19.50;4.47;;;;;;;17.24;73.49;100685.03;2102301;28;20404;-73
2022/05/02 01:20:29;;;;;;;10.07;4.20;;;;;;;17.25;73.68;100676.16;2086417;28;20430;-73
2022/05/02 01:21:51;;;;;;;13.10;4.50;;;;;;;17.17;73.75;100672.69;2092827;28;20045;-73
2022/05/02 01:23:13;;;;;;;11.27;4.25;;;;;;;17.11;74.13;100675.44;2094026;28;20065;-73
2022/05/02 01:24:37;;;;;;;15.02;4.15;;;;;;;17.10;74.26;100676.31;2094466;28;20105;-74
2022/05/02 01:25:59;;;;;;;13.57;4.20;;;;;;;17.14;74.20;100676.25;2103262;28;20081;-73
2022/05/02 01:27:22;;;;;;;16.33;4.95;;;;;;;17.18;74.23;100677.13;2100850;28;20056;-73
2022/05/02 01:28:45;;;;;;;11.00;4.63;;;;;;;17.22;74.01;100669.94;2094351;28;20543;-73
2022/05/02 01:30:09;;;;;;;8.88;3.80;;;;;;;17.21;74.15;100674.41;2101320;28;20044;-73
2022/05/02 01:31:30;;;;;;;12.00;5.32;;;;;;;17.20;74.19;100682.44;2101227;28;20040;-73
2022/05/02 01:32:52;;;;;;;8.93;4.18;;;;;;;17.17;74.41;100688.69;2092399;28;20441;-73
2022/05/02 01:34:14;;;;;;;13.77;4.82;;;;;;;17.14;74.49;100686.03;2086163;28;20053;-72
2022/05/02 01:35:38;;;;;;;14.82;4.85;;;;;;;17.13;74.74;100684.31;2099606;28;20048;-73
2022/05/02 01:37:00;;;;;;;12.23;4.13;;;;;;;17.06;74.87;100686.16;2105427;28;20097;-73
2022/05/02 01:38:21;;;;;;;12.25;4.15;;;;;;;16.97;75.13;100690.72;2093879;28;20040;-73
2022/05/02 01:39:44;;;;;;;8.80;3.72;;;;;;;16.90;75.39;100683.69;2098747;28;20625;-73
2022/05/02 01:41:06;;;;;;;16.48;5.22;;;;;;;16.86;75.47;100679.28;2096879;28;20048;-72
2022/05/02 01:42:29;;;;;;;11.77;4.47;;;;;;;16.86;75.67;100671.28;2102579;28;20044;-72
2022/05/02 01:43:50;;;;;;;11.07;4.30;;;;;;;16.91;75.82;100661.44;2099628;28;20093;-73
2022/05/02 01:45:13;;;;;;;13.88;4.88;;;;;;;16.97;75.69;100669.38;2105505;28;20056;-72
2022/05/02 01:46:34;;;;;;;14.02;3.97;;;;;;;16.98;75.56;100660.47;2093791;28;20090;-72
2022/05/02 01:47:57;;;;;;;9.60;4.13;;;;;;;16.97;75.59;100659.59;2097212;28;20072;-73
2022/05/02 01:49:19;;;;;;;9.98;4.13;;;;;;;16.97;75.80;100659.59;2093384;28;20045;-73
2022/05/02 01:50:42;;;;;;;12.43;4.63;;;;;;;16.97;75.73;100664.94;2099030;28;20064;-72
2022/05/02 01:52:05;;;;;;;13.35;4.57;;;;;;;16.97;75.81;100682.72;2092275;28;20381;-73
2022/05/02 01:53:27;;;;;;;10.45;4.00;;;;;;;16.98;75.81;100672.03;2097656;28;20044;-73
2022/05/02 01:54:50;;;;;;;9.88;4.47;;;;;;;17.01;75.88;100660.44;2091558;28;20041;-72
2022/05/02 01:56:11;;;;;;;7.93;3.60;;;;;;;17.06;75.92;100658.59;2099881;28;20056;-73
2022/05/02 01:57:34;;;;;;;10.60;4.55;;;;;;;17.09;75.79;100642.53;2105238;28;20040;-72
2022/05/02 01:58:57;;;;;;;8.38;3.53;;;;;;;17.11;75.74;100649.63;2091801;28;20048;-73
2022/05/02 02:00:21;;;;;;;14.52;4.10;;;;;;;17.13;75.69;100665.63;2093854;28;20373;-73
2022/05/02 02:01:44;;;;;;;14.77;4.32;;;;;;;17.12;75.74;100675.41;2097579;28;20075;-72
2022/05/02 02:03:06;;;;;;;11.35;4.07;;;;;;;17.12;75.78;100686.09;2101293;28;20048;-73
2022/05/02 02:06:11;;;;;;;11.50;3.83;;;;;;;17.14;75.79;100678.03;2104466;28;20493;-73
2022/05/02 02:07:32;;;;;;;10.70;4.03;;;;;;;17.12;75.84;100671.88;2101009;28;20130;-73
2022/05/02 02:08:54;;;;;;;12.75;4.72;;;;;;;17.15;75.88;100677.13;2100008;28;20173;-73
2022/05/02 02:10:16;;;;;;;12.82;4.00;;;;;;;17.15;75.89;100685.16;2089597;28;20115;-72
2022/05/02 02:11:39;;;;;;;11.57;4.38;;;;;;;17.16;75.86;100715.38;2099616;28;20036;-73
2022/05/02 02:13:00;;;;;;;10.77;3.83;;;;;;;17.19;75.82;100740.25;2105032;28;20052;-73
2022/05/02 02:14:22;;;;;;;12.40;4.20;;;;;;;17.21;75.77;100738.44;2091595;28;20063;-72
2022/05/02 02:15:45;;;;;;;10.65;3.80;;;;;;;17.21;75.62;100749.09;2099166;28;20047;-73
2022/05/02 02:17:08;;;;;;;9.27;3.85;;;;;;;17.23;75.42;100751.75;2097787;28;20032;-73
2022/05/02 02:18:29;;;;;;;12.50;3.80;;;;;;;17.23;75.40;100751.75;2101905;28;20051;-73
2022/05/02 02:19:52;;;;;;;9.73;3.85;;;;;;;17.21;75.23;100745.53;2101596;28;20067;-73
2022/05/02 02:21:16;;;;;;;9.60;3.50;;;;;;;17.23;75.02;100747.31;2101608;28;20044;-73
2022/05/02 02:22:37;;;;;;;9.98;3.80;;;;;;;17.23;74.94;100741.09;2097188;28;20090;-73
2022/05/02 02:24:01;;;;;;;12.88;3.97;;;;;;;17.25;74.89;100761.53;2093148;28;20048;-72
2022/05/02 02:25:23;;;;;;;9.50;3.90;;;;;;;17.25;74.66;100766.84;2100410;28;20044;-73
2022/05/02 02:26:45;;;;;;;;;;;;;;;17.26;74.53;100773.09;2104728;28;20098;-73
2022/05/02 02:28:07;;;;;;;12.70;3.85;;;;;;;17.21;74.68;100788.22;2101601;28;19927;-73
2022/05/02 02:29:29;;;;;;;10.50;3.50;;;;;;;17.18;74.51;100780.28;2103494;28;20136;-73
2022/05/02 02:30:52;;;;;;;7.97;3.75;;;;;;;17.18;74.57;100762.50;2103815;28;20552;-73
2022/05/02 02:32:15;;;;;;;6.78;3.50;;;;;;;17.17;74.64;100733.16;2102944;28;20535;-73
2022/05/02 02:33:38;;;;;;;11.25;3.60;;;;;;;17.11;74.77;100699.44;2104130;28;20101;-73
2022/05/02 02:34:59;;;;;;;11.52;3.53;;;;;;;17.03;75.00;100669.31;2095973;28;20068;-73
2022/05/02 02:36:23;;;;;;;14.95;4.00;;;;;;;16.91;75.29;100666.78;2098523;28;20048;-73
2022/05/02 02:37:46;;;;;;;13.55;4.00;;;;;;;16.80;75.83;100687.38;2099673;28;20085;-73
2022/05/02 02:39:08;;;;;;;9.30;3.85;;;;;;;16.76;76.25;100712.28;2097619;28;20101;-74
2022/05/02 02:40:31;;;;;;;9.82;4.30;;;;;;;16.76;76.38;100731.81;2098071;28;20052;-73
2022/05/02 02:41:52;;;;;;;10.07;3.97;;;;;;;16.77;76.70;100752.25;2103544;28;20044;-74
2022/05/02 02:43:15;;;;;;;12.63;4.15;;;;;;;16.78;76.60;100753.16;2097484;28;20052;-74
2022/05/02 02:44:36;;;;;;;10.75;4.15;;;;;;;16.76;76.66;100754.94;2101613;28;20040;-74
2022/05/02 02:45:59;;;;;;;16.27;3.97;;;;;;;16.73;76.53;100751.41;2096380;28;20056;-74
2022/05/02 02:47:20;;;;;;;11.52;4.70;;;;;;;16.70;76.40;100759.44;2090949;28;20045;-74
2022/05/02 02:48:43;;;;;;;13.98;4.25;;;;;;;16.69;76.55;100765.66;2094199;28;20572;-74
2022/05/02 02:50:04;;;;;;;13.38;4.18;;;;;;;16.61;76.80;100777.28;2090662;28;20044;-75
2022/05/02 02:51:28;;;;;;;7.63;3.05;;;;;;;16.52;77.37;100780.88;2097933;28;20058;-74
2022/05/02 02:52:50;;;;;;;9.63;3.13;;;;;;;16.46;77.70;100783.59;2097944;28;20127;-75
2022/05/02 02:54:13;;;;;;;9.43;2.95;;;;;;;16.42;78.04;100787.19;2092930;28;20054;-74
2022/05/02 02:55:35;;;;;;;10.38;3.55;;;;;;;16.42;78.20;100792.50;2092918;28;20052;-73
2022/05/02 02:56:58;;;;;;;6.47;2.60;;;;;;;16.41;78.29;100788.06;2088344;28;20155;-74
2022/05/02 02:58:21;;;;;;;7.93;3.60;;;;;;;16.37;78.38;100781.00;2103891;28;20077;-74
2022/05/02 02:59:44;;;;;;;5.10;2.60;;;;;;;16.36;78.57;100787.22;2104993;28;20068;-74
2022/05/02 03:01:06;;;;;;;7.55;2.88;;;;;;;16.34;78.62;100789.91;2085577;28;20048;-74
2022/05/02 03:02:28;;;;;;;9.05;3.55;;;;;;;16.32;78.80;100777.50;2098581;28;20044;-74
2022/05/02 03:03:50;;;;;;;8.10;3.95;;;;;;;16.36;78.86;100784.56;2103362;28;20051;-75
2022/05/02 03:06:54;;;;;;;11.07;3.72;;;;;;;16.50;78.70;100774.69;2096000;28;20083;-74
2022/05/02 03:08:17;;;;;;;9.13;3.35;;;;;;;16.55;78.40;100774.63;2092532;28;20127;-75
2022/05/02 03:09:38;;;;;;;8.70;3.58;;;;;;;16.59;78.12;100753.28;2101177;28;20043;-74
2022/05/02 03:11:02;;;;;;;8.55;3.95;;;;;;;16.61;77.96;100743.50;2105489;28;20071;-74
2022/05/02 03:12:24;;;;;;;7.78;3.03;;;;;;;16.63;77.75;100732.84;2096505;28;20049;-75
2022/05/02 03:13:46;;;;;;;6.15;3.45;;;;;;;16.64;77.83;100721.28;2098236;28;20064;-74
2022/05/02 03:15:09;;;;;;;11.90;3.38;;;;;;;16.69;77.76;100725.66;2089689;28;20049;-74
2022/05/02 03:16:31;;;;;;;8.45;4.25;;;;;;;16.73;77.78;100729.19;2101019;28;20074;-75
2022/05/02 03:17:54;;;;;;;10.43;3.75;;;;;;;16.78;77.78;100727.38;2093718;28;20519;-73
2022/05/02 03:19:17;;;;;;;9.43;4.03;;;;;;;16.79;77.91;100728.25;2100929;28;20048;-74
2022/05/02 03:20:39;;;;;;;8.98;4.07;;;;;;;16.77;77.89;100724.72;2089500;28;20033;-74
2022/05/02 03:22:04;;;;;;;9.52;4.40;;;;;;;16.73;78.13;100719.44;2090042;28;20139;-75
2022/05/02 03:23:26;;;;;;;11.77;3.97;;;;;;;16.69;78.30;100725.66;2094661;28;20090;-74
2022/05/02 03:24:49;;;;;;;12.68;4.13;;;;;;;16.56;78.44;100739.09;2103798;28;20109;-75
2022/05/02 03:26:11;;;;;;;16.65;4.85;;;;;;;16.39;78.92;100738.38;2096103;28;20037;-75
2022/05/02 03:27:33;;;;;;;15.45;4.82;;;;;;;16.35;79.37;100726.84;2091519;28;20072;-74
2022/05/02 03:28:55;;;;;;;10.88;3.92;;;;;;;16.39;79.65;100715.28;2083618;28;20160;-74
2022/05/02 03:30:17;;;;;;;14.05;3.63;;;;;;;16.46;79.76;100686.78;2097764;28;20051;-75
2022/05/02 03:31:40;;;;;;;10.73;3.83;;;;;;;16.50;79.53;100672.53;2102918;28;20047;-74
2022/05/02 03:33:02;;;;;;;6.40;3.35;;;;;;;16.50;79.16;100673.41;2093999;28;20511;-75
2022/05/02 03:34:24;;;;;;;10.43;3.90;;;;;;;16.49;78.95;100673.41;2099129;28;20044;-74
2022/05/02 03:35:46;;;;;;;11.10;4.65;;;;;;;16.47;79.07;100673.47;2097260;28;20083;-74
2022/05/02 03:37:10;;;;;;;15.75;4.30;;;;;;;16.44;79.30;100675.25;2095293;28;20133;-74
2022/05/02 03:38:33;;;;;;;10.00;4.15;;;;;;;16.40;79.44;100670.88;2095350;28;20460;-74
2022/05/02 03:39:54;;;;;;;6.40;3.42;;;;;;;16.30;79.60;100675.38;2098610;28;20040;-74
2022/05/02 03:41:18;;;;;;;8.02;3.97;;;;;;;16.12;79.93;100670.22;2103170;28;20101;-74
2022/05/02 03:42:41;;;;;;;11.10;3.45;;;;;;;16.01;80.51;100658.78;2102821;28;20066;-74
2022/05/02 03:44:02;;;;;;;11.88;3.72;;;;;;;16.01;80.77;100653.47;2097298;28;20484;-73
2022/05/02 03:45:25;;;;;;;15.48;4.07;;;;;;;16.03;80.97;100644.53;2106848;28;20396;-74
2022/05/02 03:46:48;;;;;;;9.98;4.60;;;;;;;16.09;81.00;100646.28;2103658;28;20055;-73
2022/05/02 03:48:10;;;;;;;10.73;4.28;;;;;;;16.16;80.83;100669.28;2093393;28;20435;-73
2022/05/02 03:49:32;;;;;;;13.55;3.95;;;;;;;16.17;80.84;100681.72;2089228;28;20045;-73
2022/05/02 03:50:55;;;;;;;10.25;4.32;;;;;;;16.24;80.77;100689.66;2099691;28;20109;-73
2022/05/02 03:52:19;;;;;;;10.27;4.28;;;;;;;16.37;80.79;100693.09;2101181;28;20043;-73
2022/05/02 03:53:41;;;;;;;10.63;4.13;;;;;;;16.45;80.50;100693.91;2096869;28;20677;-73
2022/05/02 03:55:05;;;;;;;10.13;4.13;;;;;;;16.47;80.24;100688.56;2109845;28;20129;-73
2022/05/02 03:56:27;;;;;;;19.60;3.90;;;;;;;16.49;80.16;100674.31;2098673;28;20396;-73
2022/05/02 03:57:50;;;;;;;11.23;4.50;;;;;;;16.54;80.13;100663.63;2094182;28;20052;-73
2022/05/02 03:59:11;;;;;;;9.48;3.83;;;;;;;16.59;80.07;100643.13;2109059;28;20108;-74
2022/05/02 04:00:34;;;;;;;9.68;3.65;;;;;;;16.59;79.89;100661.78;2095030;28;20047;-73
2022/05/02 04:01:56;;;;;;;11.77;4.03;;;;;;;16.58;79.71;100673.34;2094346;28;20060;-73
2022/05/02 04:03:19;;;;;;;9.05;4.10;;;;;;;16.58;79.79;100686.66;2092594;28;20102;-73
2022/05/02 04:04:42;;;;;;;9.27;4.47;;;;;;;16.59;79.71;100689.31;2099542;28;20552;-73
2022/05/02 04:06:05;;;;;;;8.77;3.67;;;;;;;16.63;79.68;100698.19;2101790;28;20070;-73
2022/05/02 04:07:29;;;;;;;12.95;4.70;;;;;;;16.64;79.64;100700.84;2100785;28;20124;-74
2022/05/02 04:08:51;;;;;;;11.95;3.85;;;;;;;16.63;79.61;100712.41;2102633;28;20052;-74
2022/05/02 04:10:14;;;;;;;5.75;3.53;;;;;;;16.62;79.57;100710.63;2105212;28;20631;-74
2022/05/02 04:11:36;;;;;;;7.28;3.58;;;;;;;16.62;79.56;100712.41;2094150;28;20050;-74
2022/05/02 04:12:58;;;;;;;13.93;4.40;;;;;;;16.60;79.51;100709.78;2102444;28;20048;-74
2022/05/02 04:14:21;;;;;;;9.00;4.30;;;;;;;16.60;79.49;100707.13;2093946;28;20055;-74
2022/05/02 04:15:43;;;;;;;11.35;3.75;;;;;;;16.61;79.60;100710.63;2102772;28;20105;-73
2022/05/02 04:17:06;;;;;;;11.73;3.72;;;;;;;16.61;79.59;100729.28;2101794;28;20044;-74
2022/05/02 04:18:29;;;;;;;9.10;3.25;;;;;;;16.61;79.62;100730.19;2091352;28;20100;-73
2022/05/02 04:19:51;;;;;;;9.70;3.28;;;;;;;16.59;79.60;100723.97;2099270;28;20066;-74
2022/05/02 04:21:13;;;;;;;9.85;4.30;;;;;;;16.61;79.65;100732.84;2098463;28;20073;-74
2022/05/02 04:22:39;;;;;;;11.82;4.00;;;;;;;16.64;79.71;100738.16;2091677;28;20432;-74
2022/05/02 04:24:02;;;;;;;12.82;5.53;;;;;;;16.62;79.74;100745.28;2097856;28;20127;-73
2022/05/02 04:25:24;;;;;;;9.30;4.53;;;;;;;16.64;79.78;100748.81;2102132;28;20072;-74
2022/05/02 04:26:47;;;;;;;11.40;4.50;;;;;;;16.67;79.97;100739.94;2089462;28;20053;-74
2022/05/02 04:28:11;;;;;;;11.73;4.22;;;;;;;16.71;79.80;100723.88;2098748;28;20048;-74
2022/05/02 04:29:34;;;;;;;14.50;6.53;;;;;;;16.73;79.64;100706.09;2102050;28;20415;-74
2022/05/02 04:30:55;;;;;;;10.68;4.20;;;;;;;16.74;79.67;100702.50;2101831;28;20143;-73
2022/05/02 04:32:18;;;;;;;11.32;4.30;;;;;;;16.74;79.54;100702.50;2086947;28;20131;-73
2022/05/02 04:33:41;;;;;;;11.88;3.88;;;;;;;16.75;79.63;100706.06;2090467;28;20603;-73
2022/05/02 04:35:04;;;;;;;9.93;4.22;;;;;;;16.77;79.70;100714.03;2099013;28;20848;-73
2022/05/02 04:36:27;;;;;;;9.07;4.35;;;;;;;16.79;79.72;100717.59;2093696;28;20045;-74
2022/05/02 04:37:49;;;;;;;11.45;3.78;;;;;;;16.71;79.72;100726.53;2083486;28;20137;-73
2022/05/02 04:39:12;;;;;;;7.88;3.47;;;;;;;16.64;80.13;100735.50;2099875;28;20043;-74
2022/05/02 04:40:33;;;;;;;8.88;3.88;;;;;;;16.66;80.09;100744.38;2097483;28;20040;-73
2022/05/02 04:41:56;;;;;;;7.05;3.58;;;;;;;16.72;80.10;100748.75;2092012;28;20048;-73
2022/05/02 04:43:18;;;;;;;9.65;4.45;;;;;;;16.76;79.85;100753.16;2093673;28;20054;-73
2022/05/02 04:44:41;;;;;;;10.48;3.78;;;;;;;16.80;79.74;100746.91;2100078;28;20361;-73
2022/05/02 04:46:04;;;;;;;10.30;3.72;;;;;;;16.83;79.54;100753.97;2093684;28;20048;-73
2022/05/02 04:47:25;;;;;;;8.48;4.05;;;;;;;16.85;79.42;100757.50;2094885;28;20427;-73
2022/05/02 04:48:47;;;;;;;11.50;4.07;;;;;;;16.87;79.32;100769.06;2100359;28;20044;-73
2022/05/02 04:50:10;;;;;;;12.88;4.45;;;;;;;16.89;79.30;100762.78;2092038;28;20048;-73
2022/05/02 04:51:33;;;;;;;9.73;3.55;;;;;;;16.92;79.30;100753.91;2092056;28;20037;-74
2022/05/02 04:52:57;;;;;;;11.60;3.45;;;;;;;16.96;79.16;100747.63;2093243;28;20105;-73
2022/05/02 04:54:20;;;;;;;9.73;3.80;;;;;;;16.96;79.08;100734.28;2083939;28;20041;-74
2022/05/02 04:55:42;;;;;;;8.93;3.70;;;;;;;16.96;79.01;100723.59;2101627;28;20087;-73
2022/05/02 04:57:05;;;;;;;7.72;3.80;;;;;;;16.98;78.93;100713.81;2091727;28;20093;-73
2022/05/02 04:58:28;;;;;;;7.90;3.38;;;;;;;16.97;78.86;100693.38;2100020;28;20568;-73
2022/05/02 04:59:50;;;;;;;12.43;3.75;;;;;;;16.96;78.91;100678.28;2088916;28;20131;-74
2022/05/02 05:01:13;;;;;;;7.65;4.03;;;;;;;16.95;79.05;100679.16;2083912;28;20086;-73
2022/05/02 05:02:35;;;;;;;9.57;3.95;;;;;;;16.95;79.11;100684.50;2078587;28;20044;-73
2022/05/02 05:03:57;;;;;;;7.88;3.38;;;;;;;16.95;79.23;100669.38;2097728;28;20138;-73
2022/05/02 05:05:19;;;;;;;11.30;3.78;;;;;;;16.97;79.42;100643.59;2101118;28;20081;-73
2022/05/02 05:06:42;;;;;;;8.77;3.45;;;;;;;16.98;79.53;100601.81;2094605;28;20109;-73
2022/05/02 05:08:08;;;;;;;11.43;3.83;;;;;;;16.93;79.60;100571.66;2090579;28;20044;-73
2022/05/02 05:09:31;;;;;;;12.85;4.43;;;;;;;16.79;79.81;100560.28;2100193;28;20411;-73
2022/05/02 05:11:06;;;;;;;8.18;3.63;;;;;;;16.78;80.45;100558.53;2101989;28;20056;-73
2022/05/02 05:12:42;;;;;;;9.57;3.85;;;;;;;16.78;80.79;100562.06;2093708;28;20053;-72
2022/05/02 05:16:33;;;;;;;9.25;4.30;;;;;;;16.72;81.50;100563.03;2087325;28;20041;-72
2022/05/02 05:18:08;;;;;;;10.55;4.53;;;;;;;16.72;81.85;100560.38;2095392;28;20128;-73
2022/05/02 05:19:55;;;;;;;9.95;3.90;;;;;;;16.77;81.96;100568.31;2088069;28;20430;-72
2022/05/02 05:21:30;;;;;;;8.70;3.42;;;;;;;16.80;82.12;100554.06;2080906;28;20041;-73
2022/05/02 05:23:08;;;;;;;11.05;3.90;;;;;;;16.88;82.16;100552.16;2086693;28;20060;-73
2022/05/02 05:24:58;;;;;;;14.88;4.28;;;;;;;17.04;82.24;100546.59;2100337;28;20040;-73
2022/05/02 05:26:35;;;;;;;12.23;3.85;;;;;;;17.18;81.96;100546.41;2101207;28;20042;-74
2022/05/02 05:28:13;;;;;;;8.80;4.30;;;;;;;17.31;81.85;100549.75;2101795;28;20044;-72
2022/05/02 05:29:47;;;;;;;14.88;4.75;;;;;;;17.40;81.59;100553.16;2103574;28;20962;-73
2022/05/02 05:31:18;;;;;;;11.02;4.20;;;;;;;17.40;81.56;100558.50;2102522;28;20069;-72
2022/05/02 05:32:45;;;;;;;11.27;4.22;;;;;;;17.44;81.75;100567.34;2095784;28;20040;-73
2022/05/02 05:34:09;;;;;;;10.25;4.03;;;;;;;17.42;81.80;100567.38;2101410;28;20047;-72
2022/05/02 05:35:45;;;;;;;12.73;4.53;;;;;;;17.42;82.05;100570.03;2099985;28;20081;-73
2022/05/02 05:37:42;;;;;;;9.73;4.18;;;;;;;17.39;82.17;100571.88;2105344;28;20133;-73
2022/05/02 05:39:07;;;;;;;7.72;4.03;;;;;;;17.37;82.46;100568.34;2105473;28;20080;-74
2022/05/02 05:40:37;;;;;;;11.35;4.18;;;;;;;17.39;82.59;100564.72;2104349;28;20044;-71
2022/05/02 05:42:09;;;;;;;6.72;3.47;;;;;;;17.40;82.67;100569.16;2095193;28;20052;-72
2022/05/02 05:43:46;;;;;;;12.55;3.92;;;;;;;17.42;82.88;100571.81;2091948;28;20040;-72
2022/05/02 05:45:15;;;;;;;7.53;3.92;;;;;;;17.41;82.94;100562.94;2096085;28;20110;-73
2022/05/02 05:46:55;;;;;;;10.13;4.40;;;;;;;17.43;83.09;100560.25;2093627;28;20037;-72
2022/05/02 05:48:29;;;;;;;10.75;3.85;;;;;;;17.52;83.29;100566.28;2087993;28;20158;-73
2022/05/02 05:50:03;;;;;;;12.63;4.45;;;;;;;17.70;83.39;100558.94;2088089;28;20063;-73
2022/05/02 05:51:34;;;;;;;11.10;4.32;;;;;;;17.93;83.23;100556.75;2101904;28;20416;-72
2022/05/02 05:53:08;;;;;;;7.32;4.25;;;;;;;18.09;82.91;100555.56;2102956;28;20051;-72
2022/05/02 05:54:46;;;;;;;11.18;3.92;;;;;;;18.23;82.81;100548.19;2103137;28;20048;-73
2022/05/02 05:56:24;;;;;;;11.02;4.40;;;;;;;18.36;82.68;100546.16;2104717;28;20044;-72
2022/05/02 05:57:53;;;;;;;6.10;3.20;;;;;;;18.48;82.51;100545.91;2104296;28;20048;-73
2022/05/02 05:59:28;;;;;;;10.70;3.58;;;;;;;18.52;82.49;100544.91;2106900;28;20040;-73
2022/05/02 06:00:57;;;;;;;8.13;3.40;;;;;;;18.64;82.70;100554.53;2104011;28;20534;-72
2022/05/02 06:02:23;;;;;;;9.18;3.85;;;;;;;18.78;82.46;100548.88;2105993;28;20117;-73
2022/05/02 06:04:07;;;;;;;12.57;4.82;;;;;;;19.03;82.56;100545.63;2095391;28;22021;-73
2022/05/02 06:05:30;;;;;;;12.27;4.10;;;;;;;19.30;82.29;100540.56;2103572;28;20123;-73
2022/05/02 06:06:54;;;;;;;12.07;4.05;;;;;;;19.53;82.16;100548.97;2104683;28;20075;-73
2022/05/02 06:08:19;;;;;;;9.35;3.88;;;;;;;19.64;81.88;100549.56;2104494;28;20050;-73
2022/05/02 06:09:44;;;;;;;10.15;3.28;;;;;;;19.77;81.95;100547.44;2102731;28;20575;-73
2022/05/02 06:11:07;;;;;;;9.40;3.63;;;;;;;19.92;82.32;100543.50;2104825;28;20067;-73
2022/05/02 06:12:32;;;;;;;7.00;3.25;;;;;;;20.12;82.22;100552.78;2104653;28;20412;-73
2022/05/02 06:13:59;;;;;;;14.05;4.63;;;;;;;20.35;81.92;100559.38;2105930;28;20047;-73
2022/05/02 06:18:43;;;;;;;10.77;4.60;;;;;;;20.78;80.89;100550.94;2103402;28;20052;-73
2022/05/02 06:20:07;;;;;;;8.05;3.40;;;;;;;20.85;80.54;100555.22;2102735;28;20064;-74
2022/05/02 06:21:29;;;;;;;10.18;4.47;;;;;;;20.89;80.07;100554.19;2103481;28;20493;-74
2022/05/02 06:22:52;;;;;;;12.20;4.35;;;;;;;20.99;79.21;100553.88;2095643;28;20052;-73
2022/05/02 06:24:16;;;;;;;8.70;3.72;;;;;;;21.08;78.63;100558.06;2100566;28;20438;-74
2022/05/02 06:25:37;;;;;;;9.73;3.47;;;;;;;21.16;77.87;100564.13;2096942;28;20085;-74
2022/05/02 06:27:03;;;;;;;8.35;3.92;;;;;;;21.26;76.94;100557.56;2085250;28;20073;-74
2022/05/02 06:28:32;;;;;;;11.00;3.50;;;;;;;21.32;76.28;100564.53;2085626;28;20045;-74
2022/05/02 06:29:55;;;;;;;11.98;4.00;;;;;;;21.37;75.87;100562.56;2086396;28;20079;-74
2022/05/02 06:31:20;;;;;;;8.07;3.33;;;;;;;21.46;74.87;100563.13;2100760;28;20051;-75
2022/05/02 06:32:45;;;;;;;7.90;3.30;;;;;;;21.56;74.01;100566.41;2095482;28;20139;-74
2022/05/02 06:34:10;;;;;;;14.13;4.03;;;;;;;21.58;73.40;100572.63;2091069;28;20457;-73
2022/05/02 06:35:37;;;;;;;8.15;3.88;;;;;;;21.65;73.21;100576.00;2102255;28;20377;-74
2022/05/02 06:37:20;;;;;;;8.00;3.15;;;;;;;21.67;73.11;100580.38;2094092;28;20053;-74
2022/05/02 06:38:51;;;;;;;11.70;3.95;;;;;;;21.75;73.03;100575.63;2105748;28;20063;-74
2022/05/02 06:40:24;;;;;;;9.30;3.03;;;;;;;21.78;72.81;100585.41;2102280;28;20036;-75